createdAt,value
2023-04-13T00:00:27.575Z,15.45
2023-04-13T00:02:56.886Z,15.68
2023-04-13T00:05:24.911Z,15.20
2023-04-13T00:07:53.215Z,17.75
2023-04-13T00:10:21.523Z,15.27
2023-04-13T00:12:50.259Z,17.98
2023-04-13T00:15:20.283Z,19.17
2023-04-13T00:17:48.592Z,17.05
2023-04-13T00:20:17.927Z,17.98
2023-04-13T00:22:47.956Z,17.45
2023-04-13T00:25:17.063Z,17.52
2023-04-13T00:27:45.507Z,17.38
2023-04-13T00:30:14.817Z,16.75
2023-04-13T00:32:44.298Z,16.87
2023-04-13T00:35:18.912Z,17.48
2023-04-13T00:37:48.622Z,15.38
2023-04-13T00:40:18.086Z,15.95
2023-04-13T00:42:47.309Z,15.23
2023-04-13T00:45:15.718Z,14.85
2023-04-13T00:47:46.748Z,15.55
2023-04-13T00:50:17.652Z,17.60
2023-04-13T00:52:46.325Z,16.70
2023-04-13T00:55:20.658Z,16.58
2023-04-13T00:57:50.170Z,17.33
2023-04-13T01:00:19.461Z,18.00
2023-04-13T01:02:47.712Z,15.60
2023-04-13T01:05:17.031Z,15.90
2023-04-13T01:07:55.470Z,14.30
2023-04-13T01:10:29.607Z,14.50
2023-04-13T01:13:09.550Z,13.02
2023-04-13T01:15:46.349Z,13.90
2023-04-13T01:18:18.539Z,12.55
2023-04-13T01:20:48.868Z,11.95
2023-04-13T01:25:57.579Z,8.88
2023-04-13T01:28:30.011Z,9.00
2023-04-13T01:31:00.503Z,8.45
2023-04-13T01:33:30.460Z,7.82
2023-04-13T01:36:00.760Z,8.20
2023-04-13T01:38:29.925Z,8.20
2023-04-13T01:40:59.382Z,9.20
2023-04-13T01:43:31.394Z,10.48
2023-04-13T01:46:11.250Z,9.45
2023-04-13T01:48:51.049Z,9.82
2023-04-13T01:51:45.345Z,9.50
2023-04-13T01:54:21.754Z,10.00
2023-04-13T01:56:51.259Z,9.38
2023-04-13T01:59:22.557Z,10.18
2023-04-13T02:01:50.934Z,8.95
2023-04-13T02:04:19.200Z,9.18
2023-04-13T02:06:48.283Z,9.13
2023-04-13T02:09:17.114Z,8.80
2023-04-13T02:11:45.145Z,8.20
2023-04-13T02:14:13.559Z,8.70
2023-04-13T02:16:43.524Z,8.70
2023-04-13T02:19:14.820Z,8.40
2023-04-13T02:21:43.050Z,8.43
2023-04-13T02:24:12.236Z,8.80
2023-04-13T02:26:40.673Z,7.07
2023-04-13T02:29:08.978Z,7.53
2023-04-13T02:31:43.462Z,7.28
2023-04-13T02:34:12.743Z,7.25
2023-04-13T02:36:41.837Z,6.97
2023-04-13T02:39:10.631Z,5.85
2023-04-13T02:41:42.880Z,6.55
2023-04-13T02:44:14.691Z,5.78
2023-04-13T02:46:52.980Z,5.70
2023-04-13T02:49:22.290Z,5.03
2023-04-13T02:52:05.554Z,5.10
2023-04-13T02:54:44.372Z,5.25
2023-04-13T02:57:13.459Z,4.57
2023-04-13T02:59:43.136Z,5.05
2023-04-13T03:02:12.651Z,4.53
2023-04-13T03:04:43.162Z,4.47
2023-04-13T03:07:14.434Z,5.68
2023-04-13T03:09:47.268Z,5.13
2023-04-13T03:12:17.021Z,5.47
2023-04-13T03:17:14.702Z,5.13
2023-04-13T03:19:46.625Z,5.70
2023-04-13T03:22:16.123Z,4.25
2023-04-13T03:24:47.283Z,4.50
2023-04-13T03:27:23.175Z,3.58
2023-04-13T03:29:52.990Z,3.20
2023-04-13T03:32:23.552Z,3.40
2023-04-13T03:35:00.447Z,3.50
2023-04-13T03:37:30.216Z,3.08
2023-04-13T03:40:05.190Z,2.70
2023-04-13T03:42:41.969Z,2.97
2023-04-13T03:45:11.265Z,2.88
2023-04-13T03:47:40.768Z,2.67
2023-04-13T03:50:12.146Z,2.58
2023-04-13T03:52:42.060Z,4.88
2023-04-13T03:55:10.746Z,2.58
2023-04-13T03:57:40.842Z,2.67
2023-04-13T04:00:15.742Z,2.78
2023-04-13T04:02:56.949Z,2.78
2023-04-13T04:05:34.408Z,3.40
2023-04-13T04:08:05.787Z,2.03
2023-04-13T04:10:34.017Z,2.30
2023-04-13T04:13:02.981Z,6.85
2023-04-13T04:15:33.904Z,3.22
2023-04-13T04:18:05.871Z,3.25
2023-04-13T04:20:36.002Z,2.13
2023-04-13T04:23:05.066Z,1.85
2023-04-13T04:25:41.966Z,3.65
2023-04-13T04:28:10.083Z,3.67
2023-04-13T04:30:37.988Z,2.65
2023-04-13T04:33:07.674Z,2.33
2023-04-13T04:35:51.508Z,3.83
2023-04-13T04:38:24.441Z,2.85
2023-04-13T04:40:57.330Z,2.45
2023-04-13T04:43:27.078Z,1.65
2023-04-13T04:45:57.634Z,3.65
2023-04-13T04:48:26.758Z,2.03
2023-04-13T04:50:59.987Z,2.33
2023-04-13T04:53:33.750Z,3.47
2023-04-13T04:56:04.976Z,3.55
2023-04-13T04:58:53.576Z,3.30
2023-04-13T05:01:27.087Z,3.22
2023-04-13T05:04:05.459Z,1.88
2023-04-13T05:06:42.146Z,5.32
2023-04-13T05:09:14.951Z,2.17
2023-04-13T05:11:48.247Z,2.40
2023-04-13T05:14:18.258Z,3.50
2023-04-13T05:16:46.922Z,1.98
2023-04-13T05:19:25.202Z,1.70
2023-04-13T05:22:01.059Z,2.15
2023-04-13T05:24:33.619Z,4.80
2023-04-13T05:27:03.437Z,2.95
2023-04-13T05:29:33.455Z,3.25
2023-04-13T05:32:01.652Z,3.92
2023-04-13T05:34:30.926Z,3.30
2023-04-13T05:37:10.538Z,4.68
2023-04-13T05:39:38.938Z,3.03
2023-04-13T05:42:07.249Z,3.78
2023-04-13T05:44:39.452Z,2.83
2023-04-13T05:47:07.355Z,4.00
2023-04-13T05:49:37.306Z,3.15
2023-04-13T05:52:07.599Z,4.73
2023-04-13T05:54:45.078Z,3.63
2023-04-13T05:57:13.062Z,4.47
2023-04-13T05:59:48.389Z,2.95
2023-04-13T06:02:22.647Z,1.92
2023-04-13T06:04:53.627Z,2.50
2023-04-13T06:07:22.599Z,2.30
2023-04-13T06:09:51.870Z,3.08
2023-04-13T06:12:20.541Z,3.22
2023-04-13T06:14:48.623Z,1.48
2023-04-13T06:17:16.469Z,3.05
2023-04-13T06:19:44.456Z,1.70
2023-04-13T06:22:12.450Z,4.28
2023-04-13T06:24:41.846Z,2.10
2023-04-13T06:27:13.797Z,2.97
2023-04-13T06:29:45.665Z,4.60
2023-04-13T06:32:13.897Z,2.63
2023-04-13T06:34:42.470Z,1.98
2023-04-13T06:37:10.602Z,1.65
2023-04-13T06:39:47.218Z,2.28
2023-04-13T06:42:17.240Z,2.13
2023-04-13T06:45:14.080Z,3.30
2023-04-13T06:52:44.986Z,3.72
2023-04-13T06:55:13.336Z,1.95
2023-04-13T06:57:43.500Z,3.95
2023-04-13T07:00:28.273Z,3.03
2023-04-13T07:02:58.258Z,2.50
2023-04-13T07:05:26.761Z,2.53
2023-04-13T07:07:58.522Z,3.42
2023-04-13T07:10:27.208Z,2.63
2023-04-13T07:12:59.574Z,2.58
2023-04-13T07:15:30.615Z,3.95
2023-04-13T07:17:58.879Z,5.57
2023-04-13T07:20:27.819Z,2.13
2023-04-13T07:22:55.734Z,3.38
2023-04-13T07:25:23.801Z,1.88
2023-04-13T07:27:52.211Z,3.05
2023-04-13T07:30:24.292Z,2.13
2023-04-13T07:32:52.450Z,2.38
2023-04-13T07:35:21.870Z,4.65
2023-04-13T07:37:52.870Z,3.08
2023-04-13T07:40:22.879Z,2.55
2023-04-13T07:42:54.295Z,1.58
2023-04-13T07:45:24.134Z,3.58
2023-04-13T07:47:53.642Z,2.92
2023-04-13T07:50:21.670Z,2.70
2023-04-13T07:52:50.118Z,3.53
2023-04-13T07:55:21.412Z,2.22
2023-04-13T07:57:50.356Z,3.00
2023-04-13T08:00:20.479Z,3.50
2023-04-13T08:02:55.487Z,2.25
2023-04-13T08:05:25.211Z,2.25
2023-04-13T08:07:53.394Z,2.28
2023-04-13T08:10:21.301Z,2.97
2023-04-13T08:12:49.149Z,1.67
2023-04-13T08:15:20.093Z,1.95
2023-04-13T08:17:48.487Z,2.08
2023-04-13T08:20:19.254Z,2.77
2023-04-13T08:22:47.364Z,1.85
2023-04-13T08:25:15.612Z,1.98
2023-04-13T08:27:43.934Z,3.60
2023-04-13T08:30:14.777Z,4.13
2023-04-13T08:32:53.806Z,2.67
2023-04-13T08:35:24.569Z,3.50
2023-04-13T08:37:53.904Z,5.18
2023-04-13T08:40:22.827Z,2.47
2023-04-13T08:42:56.135Z,1.73
2023-04-13T08:45:24.868Z,1.88
2023-04-13T08:47:52.757Z,2.42
2023-04-13T08:50:26.782Z,3.28
2023-04-13T08:52:56.421Z,1.88
2023-04-13T08:55:27.431Z,3.63
2023-04-13T08:57:59.296Z,4.43
2023-04-13T09:00:27.496Z,3.35
2023-04-13T09:03:06.629Z,3.35
2023-04-13T09:05:43.366Z,2.08
2023-04-13T09:08:14.131Z,1.58
2023-04-13T09:10:45.539Z,2.55
2023-04-13T09:13:13.439Z,2.92
2023-04-13T09:15:42.791Z,2.85
2023-04-13T09:18:22.702Z,1.98
2023-04-13T09:20:58.549Z,2.50
2023-04-13T09:23:27.225Z,3.50
2023-04-13T09:26:06.361Z,2.30
2023-04-13T09:28:34.332Z,2.22
2023-04-13T09:31:05.904Z,4.50
2023-04-13T09:33:44.565Z,2.35
2023-04-13T09:36:15.454Z,1.60
2023-04-13T09:38:44.925Z,3.15
2023-04-13T09:41:12.871Z,2.40
2023-04-13T09:43:40.967Z,2.80
2023-04-13T09:46:14.436Z,3.95
2023-04-13T09:48:43.019Z,2.25
2023-04-13T09:51:11.270Z,2.90
2023-04-13T09:53:45.473Z,2.35
2023-04-13T09:56:13.902Z,2.30
2023-04-13T09:58:45.774Z,1.50
2023-04-13T10:01:15.192Z,1.70
2023-04-13T10:03:44.007Z,1.77
2023-04-13T10:06:12.790Z,1.77
2023-04-13T10:08:41.956Z,1.30
2023-04-13T10:11:12.921Z,1.75
2023-04-13T10:13:46.799Z,1.42
2023-04-13T10:16:41.220Z,0.90
2023-04-13T10:19:12.441Z,1.42
2023-04-13T10:21:42.203Z,1.30
2023-04-13T10:24:12.882Z,1.50
2023-04-13T10:26:44.024Z,1.52
2023-04-13T10:29:14.563Z,1.30
2023-04-13T10:31:46.864Z,2.70
2023-04-13T10:34:25.536Z,1.10
2023-04-13T10:36:55.977Z,1.08
2023-04-13T10:39:28.729Z,1.42
2023-04-13T10:42:02.106Z,2.70
2023-04-13T10:44:30.257Z,2.33
2023-04-13T10:46:59.170Z,1.17
2023-04-13T10:49:33.634Z,1.10
2023-04-13T10:52:01.520Z,1.23
2023-04-13T10:54:30.249Z,1.25
2023-04-13T10:56:58.813Z,1.13
2023-04-13T10:59:53.525Z,1.20
2023-04-13T11:02:27.139Z,1.27
2023-04-13T11:07:26.096Z,1.55
2023-04-13T11:10:02.880Z,0.80
2023-04-13T11:12:31.650Z,1.60
2023-04-13T11:15:01.407Z,1.40
2023-04-13T11:17:29.626Z,6.55
2023-04-13T11:19:58.521Z,2.75
2023-04-13T11:22:28.986Z,1.88
2023-04-13T11:25:08.545Z,0.90
2023-04-13T11:27:37.835Z,1.15
2023-04-13T11:30:09.835Z,1.67
2023-04-13T11:32:41.491Z,1.48
2023-04-13T11:35:10.251Z,2.17
2023-04-13T11:37:38.740Z,1.25
2023-04-13T11:40:12.972Z,1.98
2023-04-13T11:42:43.546Z,2.85
2023-04-13T11:45:14.780Z,1.50
2023-04-13T11:47:43.110Z,2.40
2023-04-13T11:50:12.966Z,1.50
2023-04-13T11:52:42.625Z,1.50
2023-04-13T11:55:22.307Z,1.23
2023-04-13T11:57:52.303Z,1.52
2023-04-13T12:00:25.849Z,2.90
2023-04-13T12:05:27.875Z,3.08
2023-04-13T12:07:58.938Z,1.58
2023-04-13T12:10:38.180Z,1.30
2023-04-13T12:13:20.126Z,3.03
2023-04-13T12:16:06.058Z,1.60
2023-04-13T12:18:46.841Z,1.45
2023-04-13T12:21:16.928Z,3.65
2023-04-13T12:23:53.616Z,1.17
2023-04-13T12:28:56.612Z,1.45
2023-04-13T12:31:26.316Z,2.63
2023-04-13T12:33:54.248Z,2.35
2023-04-13T12:36:22.207Z,2.03
2023-04-13T12:38:50.108Z,2.35
2023-04-13T12:41:17.913Z,2.97
2023-04-13T12:43:45.778Z,1.77
2023-04-13T12:46:13.597Z,2.60
2023-04-13T12:48:42.776Z,4.57
2023-04-13T12:51:10.603Z,2.78
2023-04-13T12:53:38.758Z,3.80
2023-04-13T12:56:07.352Z,1.92
2023-04-13T12:58:35.608Z,3.47
2023-04-13T13:01:04.063Z,2.63
2023-04-13T13:03:32.007Z,2.72
2023-04-13T13:06:01.250Z,2.22
2023-04-13T13:08:29.789Z,2.00
2023-04-13T13:10:58.869Z,2.63
2023-04-13T13:13:26.791Z,3.45
2023-04-13T13:15:54.608Z,2.47
2023-04-13T13:18:23.056Z,2.30
2023-04-13T13:20:53.495Z,3.00
2023-04-13T13:23:22.725Z,3.22
2023-04-13T13:26:07.644Z,2.90
2023-04-13T13:28:38.875Z,3.92
2023-04-13T13:31:07.928Z,3.05
2023-04-13T13:33:36.232Z,3.95
2023-04-13T13:36:04.070Z,6.10
2023-04-13T13:38:34.505Z,2.92
2023-04-13T13:41:04.167Z,2.40
2023-04-13T13:43:32.051Z,3.05
2023-04-13T13:45:59.903Z,2.85
2023-04-13T13:48:28.560Z,4.15
2023-04-13T13:53:39.073Z,5.10
2023-04-13T13:56:07.488Z,5.88
2023-04-13T13:58:35.494Z,3.33
2023-04-13T14:01:04.920Z,3.50
2023-04-13T14:03:33.018Z,3.17
2023-04-13T14:06:00.925Z,5.35
2023-04-13T14:08:29.713Z,2.65
2023-04-13T14:11:00.969Z,3.17
2023-04-13T14:13:28.779Z,3.58
2023-04-13T14:15:56.756Z,3.60
2023-04-13T14:18:24.810Z,4.35
2023-04-13T14:20:53.211Z,3.88
2023-04-13T14:23:21.158Z,3.95
2023-04-13T14:25:48.984Z,2.33
2023-04-13T14:28:18.473Z,4.15
2023-04-13T14:30:46.777Z,2.65
2023-04-13T14:33:14.757Z,2.92
2023-04-13T14:35:42.607Z,2.90
2023-04-13T14:38:11.372Z,3.33
2023-04-13T14:40:39.405Z,2.65
2023-04-13T14:43:07.716Z,5.03
2023-04-13T14:45:37.076Z,2.38
2023-04-13T14:48:05.430Z,3.33
2023-04-13T14:50:33.993Z,2.72
2023-04-13T14:53:04.523Z,6.00
2023-04-13T14:55:32.785Z,2.95
2023-04-13T14:58:01.644Z,4.80
2023-04-13T15:00:39.682Z,2.55
2023-04-13T15:03:10.005Z,3.28
2023-04-13T15:05:39.218Z,5.45
2023-04-13T15:08:08.343Z,3.72
2023-04-13T15:10:36.602Z,5.07
2023-04-13T15:13:06.328Z,2.60
2023-04-13T15:15:35.883Z,5.07
2023-04-13T15:18:04.870Z,4.37
2023-04-13T15:20:34.189Z,4.70
2023-04-13T15:23:02.095Z,4.32
2023-04-13T15:25:30.014Z,6.45
2023-04-13T15:27:59.296Z,5.18
2023-04-13T15:30:28.323Z,4.10
2023-04-13T15:32:56.944Z,5.28
2023-04-13T15:35:27.281Z,7.68
2023-04-13T15:37:56.983Z,4.95
2023-04-13T15:40:26.088Z,6.13
2023-04-13T15:42:54.326Z,3.78
2023-04-13T15:45:22.264Z,4.55
2023-04-13T15:47:50.427Z,3.78
2023-04-13T15:50:19.661Z,3.90
2023-04-13T15:52:47.466Z,3.38
2023-04-13T15:55:16.726Z,5.60
2023-04-13T15:57:44.556Z,4.07
2023-04-13T16:00:13.424Z,6.63
2023-04-13T16:02:41.593Z,5.55
2023-04-13T16:05:10.135Z,5.13
2023-04-13T16:07:37.983Z,5.20
2023-04-13T16:10:07.067Z,7.47
2023-04-13T16:12:42.783Z,5.53
2023-04-13T16:15:11.969Z,5.15
2023-04-13T16:17:43.299Z,10.50
2023-04-13T16:20:19.689Z,4.40
2023-04-13T16:22:52.100Z,6.55
2023-04-13T16:25:20.486Z,8.70
2023-04-13T16:27:50.006Z,4.07
2023-04-13T16:30:20.841Z,5.53
2023-04-13T16:32:50.065Z,4.53
2023-04-13T16:35:18.036Z,6.07
2023-04-13T16:37:46.139Z,5.47
2023-04-13T16:40:15.428Z,7.70
2023-04-13T16:42:43.609Z,8.37
2023-04-13T16:45:14.994Z,6.32
2023-04-13T16:47:43.550Z,6.30
2023-04-13T16:50:12.440Z,4.30
2023-04-13T16:52:40.596Z,7.88
2023-04-13T16:55:12.452Z,5.80
2023-04-13T16:57:40.675Z,4.43
2023-04-13T17:00:10.808Z,4.05
2023-04-13T17:02:42.145Z,4.80
2023-04-13T17:05:12.430Z,5.95
2023-04-13T17:10:10.010Z,4.25
2023-04-13T17:12:37.836Z,4.65
2023-04-13T17:15:06.679Z,5.68
2023-04-13T17:17:35.711Z,7.63
2023-04-13T17:20:06.028Z,7.20
2023-04-13T17:22:33.888Z,4.45
2023-04-13T17:25:01.903Z,7.68
2023-04-13T17:27:29.744Z,3.75
2023-04-13T17:29:58.617Z,5.10
2023-04-13T17:32:27.339Z,4.82
2023-04-13T17:34:56.977Z,7.80
2023-04-13T17:37:26.336Z,8.75
2023-04-13T17:39:54.143Z,7.67
2023-04-13T17:42:21.987Z,12.32
2023-04-13T17:44:50.132Z,7.65
2023-04-13T17:47:18.326Z,6.72
2023-04-13T17:49:46.100Z,6.82
2023-04-13T17:52:14.082Z,4.20
2023-04-13T17:54:43.375Z,5.07
2023-04-13T17:57:11.262Z,6.07
2023-04-13T17:59:39.223Z,5.38
2023-04-13T18:02:07.696Z,7.40
2023-04-13T18:04:35.778Z,6.97
2023-04-13T18:07:03.696Z,6.93
2023-04-13T18:09:31.835Z,3.78
2023-04-13T18:12:01.197Z,5.65
2023-04-13T18:14:29.025Z,7.25
2023-04-13T18:16:57.114Z,4.50
2023-04-13T18:19:24.994Z,5.60
2023-04-13T18:21:52.893Z,4.90
2023-04-13T18:24:20.806Z,7.43
2023-04-13T18:26:48.638Z,5.78
2023-04-13T18:29:17.785Z,6.47
2023-04-13T18:31:45.705Z,5.13
2023-04-13T18:34:14.930Z,7.05
2023-04-13T18:36:42.900Z,5.53
2023-04-13T18:39:10.773Z,6.80
2023-04-13T18:41:40.973Z,7.40
2023-04-13T18:44:10.186Z,8.63
2023-04-13T18:46:39.546Z,7.60
2023-04-13T18:49:07.495Z,8.30
2023-04-13T18:51:35.392Z,5.88
2023-04-13T18:54:04.238Z,7.18
2023-04-13T18:56:32.136Z,6.80
2023-04-13T18:58:59.956Z,8.10
2023-04-13T19:01:27.844Z,7.28
2023-04-13T19:03:57.871Z,7.97
2023-04-13T19:06:26.958Z,4.90
2023-04-13T19:08:55.113Z,7.15
2023-04-13T19:11:27.361Z,7.82
2023-04-13T19:13:55.305Z,6.88
2023-04-13T19:16:23.708Z,12.18
2023-04-13T19:18:51.658Z,10.57
2023-04-13T19:21:23.819Z,10.23
2023-04-13T19:23:51.913Z,12.27
2023-04-13T19:26:19.804Z,10.95
2023-04-13T19:28:48.267Z,8.65
2023-04-13T19:31:16.441Z,7.90
2023-04-13T19:33:46.140Z,7.88
2023-04-13T19:36:14.045Z,11.32
2023-04-13T19:38:45.128Z,12.43
2023-04-13T19:41:13.352Z,13.10
2023-04-13T19:43:41.201Z,14.35
2023-04-13T19:46:09.297Z,10.57
2023-04-13T19:48:37.427Z,13.50
2023-04-13T19:51:05.329Z,11.00
2023-04-13T19:53:33.199Z,14.90
2023-04-13T19:56:03.080Z,8.68
2023-04-13T19:58:31.098Z,10.50
2023-04-13T20:00:59.552Z,6.53
2023-04-13T20:03:28.677Z,6.22
2023-04-13T20:05:59.327Z,10.18
2023-04-13T20:08:27.188Z,8.20
2023-04-13T20:10:55.322Z,7.32
2023-04-13T20:13:24.638Z,10.32
2023-04-13T20:15:52.507Z,8.98
2023-04-13T20:18:20.395Z,7.28
2023-04-13T20:20:49.756Z,8.52
2023-04-13T20:23:17.705Z,10.00
2023-04-13T20:25:45.564Z,7.72
2023-04-13T20:28:13.502Z,8.75
2023-04-13T20:30:42.595Z,12.15
2023-04-13T20:33:10.504Z,11.55
2023-04-13T20:35:38.288Z,8.68
2023-04-13T20:38:06.189Z,9.95
2023-04-13T20:40:36.112Z,9.68
2023-04-13T20:43:06.207Z,11.43
2023-04-13T20:45:36.129Z,6.22
2023-04-13T20:50:37.562Z,7.75
2023-04-13T20:53:05.331Z,7.75
2023-04-13T20:55:33.322Z,8.88
2023-04-13T20:58:01.285Z,10.10
2023-04-13T21:00:29.691Z,12.55
2023-04-13T21:02:57.893Z,18.50
2023-04-13T21:05:27.309Z,9.95
2023-04-13T21:07:56.986Z,12.60
2023-04-13T21:10:25.597Z,13.20
2023-04-13T21:12:53.482Z,16.52
2023-04-13T21:15:21.361Z,14.85
2023-04-13T21:17:49.764Z,13.75
2023-04-13T21:20:17.720Z,12.07
2023-04-13T21:22:46.967Z,12.27
2023-04-13T21:25:15.103Z,9.45
2023-04-13T21:27:43.081Z,8.45
2023-04-13T21:30:11.641Z,8.00
2023-04-13T21:32:39.442Z,9.65
2023-04-13T21:35:08.504Z,10.80
2023-04-13T21:37:36.365Z,9.18
2023-04-13T21:40:06.260Z,11.93
2023-04-13T21:42:34.085Z,9.93
2023-04-13T21:45:01.916Z,9.70
2023-04-13T21:47:29.974Z,9.30
2023-04-13T21:49:57.742Z,9.90
2023-04-13T21:52:25.612Z,14.80
2023-04-13T21:54:53.406Z,10.18
2023-04-13T21:57:22.596Z,12.95
2023-04-13T21:59:50.385Z,17.05
2023-04-13T22:02:18.329Z,9.68
2023-04-13T22:04:46.308Z,10.77
2023-04-13T22:07:14.194Z,11.15
2023-04-13T22:09:42.002Z,10.15
2023-04-13T22:12:11.155Z,11.32
2023-04-13T22:14:40.485Z,9.70
2023-04-13T22:17:08.387Z,7.40
2023-04-13T22:19:36.251Z,11.00
2023-04-13T22:22:04.111Z,10.88
2023-04-13T22:24:32.012Z,9.32
2023-04-13T22:27:02.868Z,10.20
2023-04-13T22:29:30.908Z,7.85
2023-04-13T22:32:00.350Z,7.97
2023-04-13T22:34:28.380Z,8.37
2023-04-13T22:36:56.303Z,11.10
2023-04-13T22:39:24.032Z,8.18
2023-04-13T22:41:51.985Z,9.95
2023-04-13T22:44:19.793Z,9.02
2023-04-13T22:46:47.584Z,10.10
2023-04-13T22:49:16.773Z,8.38
2023-04-13T22:51:44.667Z,9.02
2023-04-13T22:54:12.446Z,9.38
2023-04-13T22:56:40.364Z,7.78
2023-04-13T22:59:08.201Z,9.38
2023-04-13T23:01:36.020Z,9.30
2023-04-13T23:04:04.042Z,8.38
2023-04-13T23:06:35.676Z,9.13
2023-04-13T23:09:03.525Z,10.45
2023-04-13T23:11:31.458Z,10.18
2023-04-13T23:14:00.602Z,9.75
2023-04-13T23:16:28.691Z,8.75
2023-04-13T23:18:57.191Z,9.85
2023-04-13T23:21:26.370Z,8.43
2023-04-13T23:23:55.717Z,10.32
2023-04-13T23:26:23.840Z,8.23
2023-04-13T23:28:51.741Z,12.25
2023-04-13T23:31:19.754Z,7.90
2023-04-13T23:33:47.576Z,8.00
2023-04-13T23:36:16.117Z,11.05
2023-04-13T23:38:43.963Z,7.32
2023-04-13T23:41:13.112Z,8.30
2023-04-13T23:43:41.028Z,7.57
2023-04-13T23:46:08.864Z,7.47
2023-04-13T23:48:36.719Z,8.90
2023-04-13T23:51:04.652Z,8.30
2023-04-13T23:53:32.535Z,8.05
2023-04-13T23:56:00.348Z,9.20
2023-04-13T23:58:29.493Z,9.73
